Time;durP1;ratioP1;P1;durP2;ratioP2;P2;SDS_P1;SDS_P2;PMS_P1;PMS_P2;Temp;Humidity;BMP_temperature;BMP_pressure;BME280_temperature;BME280_humidity;BME280_pressure;Samples;Min_cycle;Max_cycle;Signal;HPM_P1;HPM_P2
2022/06/05 00:00:39;;;;;;;11.32;5.60;;;;;;;24.82;59.31;98756.09;4488956;31;20590;-84
2022/06/05 00:03:31;;;;;;;12.13;5.18;;;;;;;24.77;59.44;98752.25;4475832;31;20189;-84
2022/06/05 00:06:08;;;;;;;10.65;5.60;;;;;;;24.82;59.12;98752.56;4503469;31;20084;-84
2022/06/05 00:08:52;;;;;;;12.88;6.10;;;;;;;24.81;58.90;98757.13;4488865;31;20129;-84
2022/06/05 00:11:18;;;;;;;12.65;6.12;;;;;;;24.76;58.82;98758.66;4503423;31;20075;-84
2022/06/05 00:13:49;;;;;;;11.35;5.85;;;;;;;24.64;58.88;98758.19;4488933;31;20367;-84
2022/06/05 00:16:17;;;;;;;11.32;5.40;;;;;;;24.62;58.84;98768.31;4488916;31;20112;-84
2022/06/05 00:18:45;;;;;;;12.20;5.53;;;;;;;24.67;58.67;98764.09;4503354;31;20115;-84
2022/06/05 00:21:11;;;;;;;11.60;5.47;;;;;;;24.79;58.33;98769.09;4503244;31;20118;-84
2022/06/05 00:23:36;;;;;;;12.77;4.78;;;;;;;24.74;58.42;98764.22;4503224;31;20084;-84
2022/06/05 00:26:20;;;;;;;11.82;5.20;;;;;;;24.80;58.24;98762.66;4503293;31;20371;-84
2022/06/05 00:29:10;;;;;;;13.05;5.25;;;;;;;24.82;58.24;98760.63;4503274;31;20083;-84
2022/06/05 00:32:02;;;;;;;11.10;5.37;;;;;;;24.82;58.23;98758.81;4503279;31;20163;-84
2022/06/05 00:34:27;;;;;;;10.75;5.03;;;;;;;24.72;58.76;98758.16;4503228;31;20101;-84
2022/06/05 00:36:55;;;;;;;12.90;5.50;;;;;;;24.61;58.99;98755.84;4503103;31;20080;-84
2022/06/05 00:39:32;;;;;;;11.93;5.62;;;;;;;24.62;58.91;98752.97;4488819;31;20164;-84
2022/06/05 00:42:00;;;;;;;11.93;5.43;;;;;;;24.69;58.72;98751.28;4488888;31;20092;-84
2022/06/05 00:44:36;;;;;;;12.68;5.65;;;;;;;24.68;58.75;98748.75;4488778;31;20083;-84
2022/06/05 00:47:03;;;;;;;10.40;5.43;;;;;;;24.61;58.94;98751.31;4488591;31;20097;-84
2022/06/05 00:49:44;;;;;;;11.23;5.72;;;;;;;24.57;58.95;98746.44;4488772;31;20127;-84
2022/06/05 00:52:11;;;;;;;11.68;5.57;;;;;;;24.60;58.84;98751.47;4475535;31;20084;-84
2022/06/05 00:54:37;;;;;;;;;;;;;;;24.42;59.21;98751.69;4489082;31;20088;-84
2022/06/05 00:57:06;;;;;;;11.07;5.40;;;;;;;24.57;58.85;98743.75;4501854;31;20275;-84
2022/06/05 00:59:31;;;;;;;9.93;4.93;;;;;;;24.52;58.93;98738.88;4488702;31;20444;-84
2022/06/05 01:01:57;;;;;;;11.50;5.37;;;;;;;24.50;58.95;98739.03;4488690;31;20106;-84
2022/06/05 01:04:22;;;;;;;12.43;5.62;;;;;;;24.53;58.93;98738.72;4502956;31;20084;-84
2022/06/05 01:06:48;;;;;;;11.43;6.12;;;;;;;24.54;58.98;98736.88;4502793;31;20088;-84
2022/06/05 01:09:13;;;;;;;12.45;5.37;;;;;;;24.55;59.08;98737.69;4502850;31;20092;-84
2022/06/05 01:11:41;;;;;;;11.70;5.90;;;;;;;24.49;59.07;98740.06;4502881;31;20104;-84
2022/06/05 01:14:31;;;;;;;11.65;5.53;;;;;;;24.47;59.14;98731.31;4503011;31;20084;-84
2022/06/05 01:17:26;;;;;;;11.55;5.62;;;;;;;24.48;59.15;98732.97;4488660;31;20095;-84
2022/06/05 01:20:07;;;;;;;11.18;6.05;;;;;;;24.49;59.17;98737.38;4422666;32;20089;-84
2022/06/05 01:23:11;;;;;;;12.00;5.87;;;;;;;24.38;59.51;98736.88;4422933;32;20086;-84
2022/06/05 01:25:52;;;;;;;13.30;5.78;;;;;;;24.41;59.40;98734.69;4410125;32;20082;-84
2022/06/05 01:28:21;;;;;;;13.27;6.78;;;;;;;24.41;59.36;98729.28;4410001;32;20094;-84
2022/06/05 01:30:56;;;;;;;11.98;6.25;;;;;;;24.09;60.43;98732.94;4410012;32;20473;-84
2022/06/05 01:33:24;;;;;;;12.48;6.65;;;;;;;24.21;60.19;98733.41;4422758;32;20434;-84
2022/06/05 01:36:10;;;;;;;12.20;6.68;;;;;;;24.03;60.75;98734.47;4422704;32;20112;-84
2022/06/05 01:38:58;;;;;;;11.50;6.60;;;;;;;24.01;61.01;98732.94;4409895;32;20090;-84
2022/06/05 01:41:36;;;;;;;13.32;6.50;;;;;;;24.08;60.72;98737.47;4409943;32;20262;-84
2022/06/05 01:44:06;;;;;;;12.60;6.70;;;;;;;24.02;61.09;98740.00;4422663;32;20132;-84
2022/06/05 01:46:36;;;;;;;16.48;7.45;;;;;;;23.92;61.45;98749.09;4409756;32;20550;-84
2022/06/05 01:49:24;;;;;;;14.18;7.22;;;;;;;23.83;61.73;98739.34;4422468;32;20136;-84
2022/06/05 01:52:04;;;;;;;12.32;6.47;;;;;;;23.98;61.49;98733.31;4410021;32;20137;-84
2022/06/05 01:54:37;;;;;;;13.57;7.03;;;;;;;24.01;61.35;98735.63;4422755;32;20145;-84
2022/06/05 01:57:05;;;;;;;11.90;6.40;;;;;;;24.05;61.26;98728.87;4461765;31;20102;-84
2022/06/05 01:59:30;;;;;;;;;;;;;;;24.06;61.08;98726.03;4502928;31;20127;-84
2022/06/05 02:01:58;;;;;;;12.52;6.75;;;;;;;24.20;60.80;98729.03;4488131;31;19998;-84
2022/06/05 02:04:26;;;;;;;12.90;6.65;;;;;;;24.15;60.80;98737.63;4488139;31;20395;-84
2022/06/05 02:07:03;;;;;;;13.50;6.78;;;;;;;24.19;60.76;98735.44;4487600;31;20080;-84
2022/06/05 02:09:36;;;;;;;12.60;6.53;;;;;;;24.17;60.77;98737.47;4502264;31;20116;-84
2022/06/05 02:12:06;;;;;;;13.73;6.95;;;;;;;24.14;60.77;98733.25;4502435;31;20084;-84
2022/06/05 02:14:31;;;;;;;12.02;6.47;;;;;;;24.08;60.81;98737.47;4502353;31;20084;-84
2022/06/05 02:16:58;;;;;;;13.15;6.25;;;;;;;24.09;60.76;98735.63;4502272;31;20110;-84
2022/06/05 02:19:23;;;;;;;13.65;6.97;;;;;;;24.05;60.82;98739.66;4502290;31;20099;-84
2022/06/05 02:21:50;;;;;;;13.20;6.53;;;;;;;24.01;60.93;98744.56;4487917;31;20169;-83
2022/06/05 02:24:16;;;;;;;13.70;6.80;;;;;;;24.00;61.06;98744.72;4487855;31;20163;-84
2022/06/05 02:26:42;;;;;;;11.38;6.50;;;;;;;24.01;61.10;98743.69;4502144;31;20075;-84
2022/06/05 02:29:24;;;;;;;13.70;6.85;;;;;;;24.01;61.19;98738.31;4487692;31;20108;-84
2022/06/05 02:31:53;;;;;;;12.27;6.07;;;;;;;24.05;61.06;98745.91;4487779;31;20084;-84
2022/06/05 02:34:46;;;;;;;12.43;6.57;;;;;;;24.02;61.11;98743.53;4501990;31;20091;-84
2022/06/05 02:37:53;;;;;;;14.98;7.50;;;;;;;24.06;61.02;98744.03;4502192;31;20124;-84
2022/06/05 02:40:29;;;;;;;13.82;6.53;;;;;;;24.03;61.17;98739.84;4487839;31;20120;-84
2022/06/05 02:43:09;;;;;;;12.93;6.57;;;;;;;24.04;61.23;98743.37;4502066;31;20161;-83
2022/06/05 02:45:51;;;;;;;13.23;6.62;;;;;;;24.00;61.26;98737.50;4487527;31;20088;-84
2022/06/05 02:48:34;;;;;;;12.20;6.90;;;;;;;24.00;61.13;98740.19;4501993;31;20084;-84
2022/06/05 02:51:14;;;;;;;11.88;6.70;;;;;;;23.97;61.17;98745.91;4502161;31;20084;-84
2022/06/05 02:53:47;;;;;;;14.87;7.85;;;;;;;23.70;61.88;98749.75;4487763;31;20689;-84
2022/06/05 02:56:13;;;;;;;13.95;7.87;;;;;;;23.66;62.19;98746.59;4501967;31;20155;-84
2022/06/05 02:58:38;;;;;;;15.25;7.45;;;;;;;23.46;62.75;98740.69;4487519;31;20100;-84
2022/06/05 03:03:48;;;;;;;15.40;8.45;;;;;;;23.29;63.37;98741.69;4501619;31;20122;-84
2022/06/05 03:06:14;;;;;;;12.80;7.25;;;;;;;23.28;63.61;98737.31;4501557;31;20088;-84
2022/06/05 03:08:40;;;;;;;14.15;7.90;;;;;;;23.34;63.57;98732.09;4501299;31;20088;-84
2022/06/05 03:11:05;;;;;;;14.50;7.53;;;;;;;23.32;63.76;98739.50;4501483;31;20209;-84
2022/06/05 03:13:30;;;;;;;17.27;8.02;;;;;;;23.49;63.45;98737.66;4501570;31;20123;-84
2022/06/05 03:15:56;;;;;;;16.23;8.70;;;;;;;23.57;63.14;98744.06;4487060;31;20333;-84
2022/06/05 03:18:21;;;;;;;14.73;8.98;;;;;;;23.54;63.17;98740.69;4501404;31;20087;-84
2022/06/05 03:20:47;;;;;;;14.80;8.38;;;;;;;23.60;62.86;98741.03;4488785;31;20099;-84
2022/06/05 03:23:12;;;;;;;14.63;8.70;;;;;;;23.55;63.08;98741.53;4503604;31;20084;-84
2022/06/05 03:25:41;;;;;;;15.18;7.97;;;;;;;23.59;63.05;98742.87;4503743;31;20124;-84
2022/06/05 03:28:08;;;;;;;15.55;9.38;;;;;;;23.62;63.13;98750.59;4489211;31;20084;-84
2022/06/05 03:30:36;;;;;;;15.43;9.00;;;;;;;23.52;63.39;98747.25;4503609;31;20132;-84
2022/06/05 03:33:01;;;;;;;16.27;8.25;;;;;;;23.69;62.76;98756.16;4489312;31;20104;-84
2022/06/05 03:35:27;;;;;;;14.07;8.30;;;;;;;23.76;62.66;98762.56;4503514;31;20099;-84
2022/06/05 03:37:52;;;;;;;13.57;7.20;;;;;;;23.80;62.58;98771.12;4503599;31;20076;-84
2022/06/05 03:40:18;;;;;;;13.90;6.70;;;;;;;23.96;62.35;98773.81;4503450;31;20114;-84
2022/06/05 03:42:43;;;;;;;14.82;6.95;;;;;;;24.06;62.07;98774.47;4489204;31;20477;-84
2022/06/05 03:45:14;;;;;;;14.50;7.20;;;;;;;24.18;61.75;98787.59;4503526;31;20064;-84
2022/06/05 03:47:40;;;;;;;12.07;6.90;;;;;;;24.32;61.36;98786.91;4489159;31;20110;-84
2022/06/05 03:50:06;;;;;;;12.93;7.07;;;;;;;24.43;60.71;98781.13;4503568;31;20092;-84
2022/06/05 03:52:31;;;;;;;14.30;7.05;;;;;;;24.56;60.27;98791.38;4503491;31;20459;-84
2022/06/05 03:54:57;;;;;;;12.45;6.97;;;;;;;24.62;59.84;98801.47;4503535;31;20145;-84
2022/06/05 03:57:22;;;;;;;13.60;7.10;;;;;;;24.70;59.52;98790.66;4503446;31;20340;-84
2022/06/05 03:59:48;;;;;;;15.15;7.20;;;;;;;24.72;59.26;98801.25;4503452;31;20085;-84
2022/06/05 04:02:14;;;;;;;12.07;6.40;;;;;;;24.93;58.49;98800.66;4503471;31;20080;-84
2022/06/05 04:04:39;;;;;;;13.25;7.43;;;;;;;25.00;58.68;98803.53;4503403;31;20107;-84
2022/06/05 04:07:05;;;;;;;11.70;6.45;;;;;;;25.03;58.54;98808.53;4503285;31;20536;-84
2022/06/05 04:09:30;;;;;;;12.82;7.00;;;;;;;25.15;58.34;98812.53;4488811;31;20173;-84
2022/06/05 04:11:56;;;;;;;14.10;7.40;;;;;;;25.23;57.59;98809.00;4488982;31;20456;-84
2022/06/05 04:14:21;;;;;;;12.57;6.87;;;;;;;25.29;57.89;98808.28;4503433;31;20178;-84
2022/06/05 04:16:47;;;;;;;13.23;6.82;;;;;;;25.44;57.76;98811.03;4503257;31;20111;-84
2022/06/05 04:19:13;;;;;;;13.93;6.97;;;;;;;25.66;56.79;98822.88;4488990;31;20164;-84
2022/06/05 04:21:43;;;;;;;15.18;7.57;;;;;;;25.61;56.22;98826.13;4503259;31;20439;-84
2022/06/05 04:24:09;;;;;;;14.20;7.62;;;;;;;25.68;56.19;98823.53;4503350;31;20139;-84
2022/06/05 04:26:35;;;;;;;14.85;7.93;;;;;;;25.69;56.03;98831.44;4488937;31;20409;-84
2022/06/05 04:29:01;;;;;;;13.80;8.27;;;;;;;25.55;56.19;98832.19;4503323;31;20183;-84
2022/06/05 04:31:36;;;;;;;14.82;8.80;;;;;;;25.54;56.35;98835.94;4488801;31;20114;-84
2022/06/05 04:34:08;;;;;;;14.43;8.30;;;;;;;25.49;56.30;98831.06;4503184;31;20147;-84
2022/06/05 04:36:34;;;;;;;15.15;8.30;;;;;;;25.39;56.65;98846.62;4503132;31;20106;-84
2022/06/05 04:38:59;;;;;;;15.32;8.35;;;;;;;25.38;56.87;98841.41;4503145;31;20092;-84
2022/06/05 04:41:25;;;;;;;15.40;9.05;;;;;;;25.39;56.82;98835.00;4503395;31;20130;-84
2022/06/05 04:43:52;;;;;;;16.50;9.25;;;;;;;25.35;56.96;98839.09;4503384;31;20083;-84
2022/06/05 04:46:19;;;;;;;17.63;8.87;;;;;;;25.35;56.92;98842.63;4489021;31;20111;-84
2022/06/05 04:48:45;;;;;;;16.50;9.48;;;;;;;25.36;56.94;98840.75;4488943;31;20262;-84
2022/06/05 04:51:12;;;;;;;17.12;10.73;;;;;;;25.27;57.01;98845.38;4503485;31;20515;-84
2022/06/05 04:53:38;;;;;;;18.45;10.32;;;;;;;25.25;57.06;98847.41;4503381;31;20084;-84
2022/06/05 04:56:09;;;;;;;16.58;9.57;;;;;;;25.23;57.29;98850.25;4502971;31;20420;-84
2022/06/05 04:58:35;;;;;;;17.00;10.35;;;;;;;25.24;57.32;98851.09;4488775;31;20168;-84
2022/06/05 05:01:00;;;;;;;17.48;10.60;;;;;;;25.29;56.99;98860.34;4503064;31;20108;-84
2022/06/05 05:03:26;;;;;;;18.73;10.27;;;;;;;25.23;57.26;98862.91;4503003;31;20122;-84
2022/06/05 05:05:51;;;;;;;18.48;10.15;;;;;;;25.23;57.36;98866.44;4502949;31;20099;-84
2022/06/05 05:08:17;;;;;;;17.08;10.02;;;;;;;25.19;57.44;98875.88;4502745;31;20123;-84
2022/06/05 05:10:42;;;;;;;19.55;10.93;;;;;;;25.27;57.42;98880.41;4502982;31;20094;-84
2022/06/05 05:13:08;;;;;;;16.15;9.38;;;;;;;25.24;57.54;98878.88;4502908;31;20407;-84
2022/06/05 05:15:34;;;;;;;20.20;10.40;;;;;;;25.22;57.56;98883.63;4488552;31;20110;-84
2022/06/05 05:17:59;;;;;;;20.95;11.80;;;;;;;25.25;57.41;98887.84;4488385;31;20096;-84
2022/06/05 05:20:25;;;;;;;18.05;10.18;;;;;;;25.22;57.21;98891.72;4502952;31;20083;-83
2022/06/05 05:22:51;;;;;;;17.73;10.10;;;;;;;25.28;57.18;98900.97;4502925;31;20115;-84
2022/06/05 05:25:17;;;;;;;21.12;10.93;;;;;;;25.24;57.29;98892.38;4502827;31;20084;-84
2022/06/05 05:27:42;;;;;;;19.17;11.73;;;;;;;25.26;57.24;98906.50;4502771;31;20100;-83
2022/06/05 05:30:08;;;;;;;17.37;9.88;;;;;;;25.30;57.14;98901.63;4502796;31;20108;-84
2022/06/05 05:32:34;;;;;;;17.77;10.10;;;;;;;25.30;57.14;98902.47;4502841;31;20521;-84
2022/06/05 05:34:59;;;;;;;18.30;10.45;;;;;;;25.40;57.06;98898.69;4502770;31;20083;-84
2022/06/05 05:37:25;;;;;;;19.60;10.85;;;;;;;25.50;56.91;98897.47;4488809;31;20119;-84
2022/06/05 05:42:34;;;;;;;17.70;10.02;;;;;;;25.75;55.93;98896.47;4501918;31;20597;-84
2022/06/05 05:45:00;;;;;;;20.08;10.25;;;;;;;25.80;55.88;98907.59;4488404;31;20080;-84
2022/06/05 05:47:30;;;;;;;18.65;10.23;;;;;;;25.93;55.29;98894.38;4502545;31;20115;-84
2022/06/05 05:50:08;;;;;;;18.42;10.05;;;;;;;25.95;55.33;98897.72;4488272;31;20095;-84
2022/06/05 05:52:33;;;;;;;19.27;10.80;;;;;;;25.95;55.30;98896.91;4502713;31;20080;-84
2022/06/05 05:54:59;;;;;;;15.88;9.05;;;;;;;25.85;55.20;98899.81;4502479;31;20102;-84
2022/06/05 05:57:25;;;;;;;19.05;10.43;;;;;;;25.70;55.60;98899.72;4502611;31;20160;-84
2022/06/05 05:59:51;;;;;;;17.85;10.13;;;;;;;25.65;55.71;98894.88;4488210;31;20152;-84
2022/06/05 06:02:21;;;;;;;18.12;10.30;;;;;;;25.60;55.81;98897.25;4502535;31;20084;-84
2022/06/05 06:04:48;;;;;;;18.87;10.50;;;;;;;25.52;56.17;98891.91;4488440;31;20102;-84
2022/06/05 06:07:13;;;;;;;17.43;9.40;;;;;;;25.53;56.20;98892.75;4502396;31;20478;-84
2022/06/05 06:09:39;;;;;;;14.80;8.82;;;;;;;25.57;56.00;98885.97;4502285;31;20096;-84
2022/06/05 06:12:06;;;;;;;16.12;8.13;;;;;;;25.62;55.52;98891.69;4502292;31;20136;-84
2022/06/05 06:14:33;;;;;;;15.10;8.20;;;;;;;25.70;54.11;98892.47;4502239;31;20084;-83
2022/06/05 06:16:58;;;;;;;14.02;8.40;;;;;;;25.83;53.11;98886.50;4502232;31;20123;-83
2022/06/05 06:19:24;;;;;;;14.57;7.15;;;;;;;25.83;53.27;98881.09;4502304;31;20490;-84
2022/06/05 06:21:49;;;;;;;14.43;8.57;;;;;;;25.80;53.41;98897.63;4487925;31;20088;-84
2022/06/05 06:24:15;;;;;;;15.18;9.15;;;;;;;25.80;53.48;98891.41;4502150;31;20085;-84
2022/06/05 06:26:41;;;;;;;14.45;8.63;;;;;;;25.87;53.31;98881.56;4502142;31;20366;-83
2022/06/05 06:29:06;;;;;;;16.27;8.65;;;;;;;26.03;52.81;98875.22;4502076;31;20110;-83
2022/06/05 06:31:32;;;;;;;14.63;8.77;;;;;;;26.16;52.29;98875.47;4502136;31;20148;-84
2022/06/05 06:33:57;;;;;;;14.32;7.80;;;;;;;26.25;51.52;98882.47;4474578;31;20083;-84
2022/06/05 06:36:23;;;;;;;14.70;8.88;;;;;;;26.27;51.58;98887.72;4501873;31;20163;-84
2022/06/05 06:38:48;;;;;;;14.70;8.45;;;;;;;26.51;50.77;98880.37;4487581;31;20147;-83
2022/06/05 06:41:17;;;;;;;13.85;8.27;;;;;;;26.55;50.57;98881.69;4502014;31;20100;-84
2022/06/05 06:43:43;;;;;;;14.40;7.62;;;;;;;26.70;50.32;98884.47;4501807;31;20155;-84
2022/06/05 06:46:09;;;;;;;12.13;7.50;;;;;;;26.96;49.56;98870.47;4501914;31;20156;-84
2022/06/05 06:48:35;;;;;;;13.38;7.72;;;;;;;27.31;48.48;98868.84;4501835;31;20088;-84
2022/06/05 06:51:01;;;;;;;13.32;7.40;;;;;;;27.49;47.92;98873.00;4487334;31;20441;-83
2022/06/05 06:53:30;;;;;;;13.35;7.18;;;;;;;27.56;47.39;98868.53;4501760;31;20079;-84
2022/06/05 06:55:56;;;;;;;13.57;6.60;;;;;;;27.66;47.16;98852.81;4476015;31;20100;-84
2022/06/05 06:58:22;;;;;;;13.95;6.70;;;;;;;27.73;46.41;98851.00;4503801;31;20164;-84
2022/06/05 07:00:47;;;;;;;11.85;5.85;;;;;;;27.94;46.37;98855.63;4503793;31;20088;-84
2022/06/05 07:03:13;;;;;;;11.90;6.28;;;;;;;28.13;45.96;98856.00;4503860;31;20084;-83
2022/06/05 07:05:40;;;;;;;12.25;6.10;;;;;;;28.26;45.23;98860.69;4503894;31;20084;-84
2022/06/05 07:08:06;;;;;;;13.40;6.63;;;;;;;28.41;45.23;98848.75;4503486;31;20138;-84
2022/06/05 07:10:32;;;;;;;12.60;6.47;;;;;;;28.61;44.49;98848.91;4489217;31;20134;-84
2022/06/05 07:12:58;;;;;;;11.50;6.25;;;;;;;28.76;44.07;98840.66;4489405;31;20337;-84
2022/06/05 07:15:23;;;;;;;11.55;6.68;;;;;;;28.90;43.55;98840.72;4503823;31;20092;-84
2022/06/05 07:17:49;;;;;;;12.93;6.78;;;;;;;28.88;43.84;98842.78;4503708;31;20118;-83
2022/06/05 07:20:14;;;;;;;10.90;6.15;;;;;;;28.94;43.85;98845.53;4489407;31;20088;-83
2022/06/05 07:22:40;;;;;;;11.40;6.50;;;;;;;29.03;43.97;98851.59;4503617;31;20321;-83
2022/06/05 07:25:06;;;;;;;13.20;6.68;;;;;;;29.15;43.35;98851.94;4489211;31;20123;-83
2022/06/05 07:27:32;;;;;;;10.65;6.10;;;;;;;29.04;43.40;98857.91;4489236;31;20461;-83
2022/06/05 07:29:58;;;;;;;11.60;6.80;;;;;;;29.18;43.33;98848.78;4489268;31;20110;-84
2022/06/05 07:32:23;;;;;;;12.45;6.97;;;;;;;29.12;43.19;98846.88;4503678;31;20110;-84
2022/06/05 07:34:49;;;;;;;13.93;6.80;;;;;;;29.08;43.32;98854.56;4503925;31;20088;-84
2022/06/05 07:37:15;;;;;;;11.98;7.15;;;;;;;28.96;43.47;98856.19;4503860;31;20152;-84
2022/06/05 07:39:44;;;;;;;11.38;6.80;;;;;;;28.97;43.66;98857.84;4489137;31;20178;-84
2022/06/05 07:42:11;;;;;;;12.98;6.87;;;;;;;28.92;43.36;98857.63;4503679;31;20084;-84
2022/06/05 07:44:37;;;;;;;12.43;7.47;;;;;;;28.88;43.23;98856.34;4503492;31;20131;-84
2022/06/05 07:47:07;;;;;;;14.13;7.70;;;;;;;28.73;43.57;98865.44;4503420;31;20084;-84
2022/06/05 07:49:34;;;;;;;11.60;6.82;;;;;;;28.55;43.95;98865.09;4489189;31;20157;-84
2022/06/05 07:54:45;;;;;;;12.48;6.93;;;;;;;28.48;44.37;98864.19;4503628;31;20122;-84
2022/06/05 07:57:13;;;;;;;12.27;6.75;;;;;;;28.34;44.93;98874.09;4503500;31;20146;-84
2022/06/05 07:59:44;;;;;;;11.98;6.53;;;;;;;28.33;45.34;98870.53;4489365;31;20106;-84
2022/06/05 08:02:15;;;;;;;13.15;7.10;;;;;;;28.40;45.14;98881.44;4503478;31;20075;-83
2022/06/05 08:04:41;;;;;;;12.25;7.18;;;;;;;28.52;44.99;98879.87;4503259;31;20076;-83
2022/06/05 08:07:08;;;;;;;11.77;7.37;;;;;;;28.34;45.05;98876.81;4503162;31;20100;-83
2022/06/05 08:09:34;;;;;;;12.20;7.37;;;;;;;28.31;45.09;98880.72;4503201;31;20097;-83
2022/06/05 08:12:00;;;;;;;11.77;6.90;;;;;;;28.25;45.22;98881.53;4489050;31;20088;-83
2022/06/05 08:14:26;;;;;;;13.45;7.30;;;;;;;28.44;44.69;98882.72;4503230;31;20112;-84
2022/06/05 08:16:52;;;;;;;11.10;6.60;;;;;;;28.58;44.39;98878.25;4503312;31;20395;-84
2022/06/05 08:19:21;;;;;;;11.52;6.82;;;;;;;28.63;44.62;98878.50;4489057;31;20080;-84
2022/06/05 08:21:47;;;;;;;12.88;7.32;;;;;;;28.63;44.37;98879.34;4503286;31;20148;-84
2022/06/05 08:24:13;;;;;;;14.55;6.82;;;;;;;28.74;44.27;98885.25;4503354;31;20127;-84
2022/06/05 08:26:38;;;;;;;12.37;7.12;;;;;;;28.92;44.19;98882.88;4503193;31;20096;-84
2022/06/05 08:29:04;;;;;;;12.75;7.28;;;;;;;29.04;44.16;98880.44;4503303;31;20428;-84
2022/06/05 08:31:30;;;;;;;12.37;6.75;;;;;;;29.31;43.52;98880.59;4503315;31;20088;-84
2022/06/05 08:34:01;;;;;;;12.07;7.45;;;;;;;29.56;42.72;98887.13;4488907;31;20097;-84
2022/06/05 08:36:27;;;;;;;12.18;6.85;;;;;;;29.58;42.63;98885.06;4503293;31;20091;-84
2022/06/05 08:41:39;;;;;;;11.68;6.97;;;;;;;29.62;42.00;98884.66;4503149;31;20196;-84
2022/06/05 08:44:05;;;;;;;13.13;6.55;;;;;;;29.63;41.91;98894.47;4503212;31;20151;-83
2022/06/05 08:46:43;;;;;;;10.50;6.10;;;;;;;29.70;42.42;98889.91;4503192;31;20390;-84
2022/06/05 08:49:11;;;;;;;12.18;6.62;;;;;;;29.62;42.68;98879.22;4503148;31;20451;-83
2022/06/05 08:51:44;;;;;;;11.52;6.53;;;;;;;29.47;42.28;98885.63;4503253;31;20088;-84
2022/06/05 08:54:24;;;;;;;10.82;6.05;;;;;;;29.47;42.21;98893.78;4503115;31;20122;-84
2022/06/05 08:56:59;;;;;;;11.15;5.93;;;;;;;29.56;42.20;98887.13;4488872;31;20127;-84
2022/06/05 08:59:28;;;;;;;11.27;6.60;;;;;;;29.69;41.76;98891.78;4488731;31;20088;-84
2022/06/05 09:02:23;;;;;;;12.35;7.03;;;;;;;29.90;41.06;98881.81;4488731;31;20152;-84
2022/06/05 09:05:00;;;;;;;12.15;6.95;;;;;;;30.02;40.93;98873.87;4497288;31;79207;-84
2022/06/05 09:07:38;;;;;;;13.88;7.07;;;;;;;30.13;40.86;98878.69;4488876;31;20569;-84
2022/06/05 09:10:08;;;;;;;11.23;7.22;;;;;;;30.11;40.85;98878.06;4488483;31;20113;-84
2022/06/05 09:13:00;;;;;;;13.77;6.68;;;;;;;30.04;40.66;98871.78;4488605;31;20148;-84
2022/06/05 09:15:37;;;;;;;12.30;6.87;;;;;;;29.97;40.99;98874.50;4488754;31;20123;-84
2022/06/05 09:18:10;;;;;;;10.20;6.30;;;;;;;30.15;40.20;98872.03;4487602;31;20095;-84
2022/06/05 09:20:54;;;;;;;12.77;6.97;;;;;;;30.08;40.85;98873.06;4488539;31;20110;-84
2022/06/05 09:23:40;;;;;;;11.25;6.90;;;;;;;30.04;40.73;98875.38;4502985;31;20656;-84
2022/06/05 09:26:05;;;;;;;11.05;7.45;;;;;;;29.92;40.78;98879.72;4488910;31;20083;-84
2022/06/05 09:28:33;;;;;;;12.45;7.90;;;;;;;29.88;40.77;98878.47;4502734;31;20551;-84
2022/06/05 09:31:25;;;;;;;12.55;7.40;;;;;;;29.72;40.85;98882.38;4502762;31;20092;-84
2022/06/05 09:33:52;;;;;;;11.45;7.22;;;;;;;29.56;41.00;98872.72;4494363;31;20599;-84
2022/06/05 09:36:18;;;;;;;12.60;7.55;;;;;;;29.43;41.42;98884.38;4488496;31;20127;-83
2022/06/05 09:38:55;;;;;;;11.85;7.00;;;;;;;29.44;41.52;98888.78;4488398;31;20130;-84
2022/06/05 09:42:11;;;;;;;11.88;6.65;;;;;;;29.34;41.76;98883.72;4488621;31;20088;-84
2022/06/05 09:45:03;;;;;;;12.23;7.22;;;;;;;29.35;41.61;98898.97;4437993;32;20151;-84
2022/06/05 09:47:39;;;;;;;14.20;8.02;;;;;;;29.23;41.91;98888.91;4424940;32;20125;-84
2022/06/05 09:50:19;;;;;;;12.18;7.15;;;;;;;29.07;41.86;98900.88;4437946;32;20131;-83
2022/06/05 09:52:45;;;;;;;12.93;8.30;;;;;;;29.06;42.29;98894.63;4425071;32;20799;-83
2022/06/05 09:55:16;;;;;;;13.27;7.85;;;;;;;29.01;42.31;98900.66;4424859;32;20118;-84
2022/06/05 10:00:31;;;;;;;11.73;7.30;;;;;;;29.20;42.15;98906.41;4437828;32;20187;-84
2022/06/05 10:03:01;;;;;;;12.95;7.50;;;;;;;29.25;42.20;98903.94;4437755;32;20448;-84
2022/06/05 10:05:30;;;;;;;13.15;6.97;;;;;;;29.35;41.29;98904.37;4424971;32;20085;-84
2022/06/05 10:08:00;;;;;;;11.65;6.90;;;;;;;29.46;40.88;98905.69;4437504;32;20105;-83
2022/06/05 10:10:38;;;;;;;12.13;6.97;;;;;;;29.55;40.50;98906.34;4437767;32;20253;-84
2022/06/05 10:13:18;;;;;;;12.05;6.55;;;;;;;29.80;40.28;98917.50;4437761;32;20097;-84
2022/06/05 10:15:50;;;;;;;11.48;6.18;;;;;;;29.99;39.25;98921.31;4424916;32;20085;-84
2022/06/05 10:18:31;;;;;;;10.32;6.03;;;;;;;30.01;38.73;98912.97;4460788;31;20114;-84
2022/06/05 10:21:04;;;;;;;12.02;6.22;;;;;;;30.09;38.03;98912.75;4488078;31;20100;-84
2022/06/05 10:23:52;;;;;;;10.90;5.43;;;;;;;30.17;37.67;98913.41;4487877;31;20079;-83
2022/06/05 10:26:25;;;;;;;13.62;5.85;;;;;;;30.11;37.86;98914.22;4488031;31;20075;-84
2022/06/05 10:28:53;;;;;;;9.73;5.32;;;;;;;29.99;37.12;98905.84;4488603;31;20092;-84
2022/06/05 10:31:21;;;;;;;8.98;4.90;;;;;;;29.84;37.43;98905.19;4489886;31;20142;-84
2022/06/05 10:33:48;;;;;;;10.48;5.50;;;;;;;29.83;37.73;98894.56;4503988;31;20465;-84
2022/06/05 10:36:22;;;;;;;;;;;;;;;29.78;37.77;98900.59;4504333;31;20080;-84
2022/06/05 10:39:05;;;;;;;9.20;5.03;;;;;;;29.81;37.61;98893.94;4489960;31;19994;-84
2022/06/05 10:41:30;;;;;;;10.00;4.95;;;;;;;29.58;36.30;98893.19;4476621;31;20148;-84
2022/06/05 10:44:46;;;;;;;12.05;5.35;;;;;;;29.35;37.10;98898.13;4503990;31;20084;-84
2022/06/05 10:47:17;;;;;;;10.23;4.57;;;;;;;29.08;37.25;98887.13;4410903;32;20292;-84
2022/06/05 10:49:55;;;;;;;9.10;4.47;;;;;;;28.85;36.81;98881.97;4411130;32;20453;-84
2022/06/05 10:52:27;;;;;;;9.27;4.37;;;;;;;28.52;37.58;98865.50;4411020;32;20155;-84
2022/06/05 10:55:07;;;;;;;9.38;4.28;;;;;;;28.43;38.27;98871.06;4411022;32;20440;-84
2022/06/05 10:57:46;;;;;;;8.45;4.28;;;;;;;28.43;38.18;98876.47;4423733;32;20090;-84
2022/06/05 11:00:18;;;;;;;9.85;4.62;;;;;;;28.12;37.50;98865.97;4423882;32;20573;-84
2022/06/05 11:03:28;;;;;;;9.20;4.47;;;;;;;28.09;38.01;98871.81;4423745;32;20196;-84
2022/06/05 11:06:25;;;;;;;10.63;4.40;;;;;;;27.88;38.19;98872.66;4421014;32;20111;-84
2022/06/05 11:09:27;;;;;;;12.07;4.40;;;;;;;27.84;39.20;98858.63;4410552;32;20116;-84
2022/06/05 11:15:12;;;;;;;10.02;4.30;;;;;;;27.84;38.84;98860.50;4412973;32;20205;-84
2022/06/05 11:17:59;;;;;;;8.83;4.13;;;;;;;27.79;38.00;98862.94;4410911;32;20085;-83
2022/06/05 11:20:26;;;;;;;9.10;4.60;;;;;;;27.84;38.60;98865.91;4423669;32;20112;-83
2022/06/05 11:22:57;;;;;;;9.65;4.78;;;;;;;27.79;38.79;98871.88;4425817;31;20136;-84
2022/06/05 11:25:30;;;;;;;8.98;4.25;;;;;;;27.81;37.69;98866.28;4489395;31;20425;-83
2022/06/05 11:28:00;;;;;;;9.27;4.62;;;;;;;27.69;38.66;98865.97;4503692;31;20075;-84
2022/06/05 11:30:47;;;;;;;8.90;4.30;;;;;;;27.85;39.11;98854.91;4489419;31;20106;-83
2022/06/05 11:33:22;;;;;;;13.52;5.65;;;;;;;28.06;38.87;98855.09;4489400;31;20481;-84
2022/06/05 11:35:55;;;;;;;9.27;4.82;;;;;;;28.13;38.27;98856.84;4489491;31;20105;-84
2022/06/05 11:38:58;;;;;;;9.70;4.65;;;;;;;28.27;39.33;98852.38;4503630;31;20068;-84
2022/06/05 11:41:29;;;;;;;9.82;5.22;;;;;;;28.46;38.47;98858.13;4503121;31;20194;-84
2022/06/05 11:44:12;;;;;;;10.95;5.57;;;;;;;28.59;37.81;98861.81;4489241;31;20604;-84
2022/06/05 11:46:51;;;;;;;10.63;4.68;;;;;;;28.78;37.38;98862.97;4503615;31;20110;-84
2022/06/05 11:49:42;;;;;;;11.27;4.75;;;;;;;28.92;37.52;98857.63;4489248;31;20080;-84
2022/06/05 11:52:21;;;;;;;10.30;5.10;;;;;;;28.87;37.29;98841.94;4503619;31;20060;-84
2022/06/05 11:54:52;;;;;;;9.57;4.95;;;;;;;28.85;37.66;98846.72;4489320;31;20092;-84
2022/06/05 11:57:29;;;;;;;8.80;4.70;;;;;;;28.95;37.19;98839.06;4489095;31;20096;-84
2022/06/05 12:00:27;;;;;;;9.88;4.97;;;;;;;28.96;37.46;98840.75;4489267;31;20076;-84
2022/06/05 12:03:23;;;;;;;11.15;4.93;;;;;;;28.83;37.27;98833.38;4438632;32;20550;-84